createdAt,value
2023-05-04T00:02:21.698Z,15.00
2023-05-04T00:04:52.525Z,15.67
2023-05-04T00:07:23.854Z,17.83
2023-05-04T00:09:54.009Z,15.10
2023-05-04T00:12:21.264Z,17.03
2023-05-04T00:14:48.808Z,16.23
2023-05-04T00:17:17.263Z,16.97
2023-05-04T00:19:46.313Z,16.03
2023-05-04T00:22:14.665Z,17.37
2023-05-04T00:24:46.937Z,15.90
2023-05-04T00:27:14.382Z,16.83
2023-05-04T00:29:41.548Z,16.33
2023-05-04T00:32:10.011Z,16.57
2023-05-04T00:34:37.584Z,16.57
2023-05-04T00:37:08.165Z,16.87
2023-05-04T00:39:38.999Z,18.73
2023-05-04T00:42:07.543Z,15.50
2023-05-04T00:44:37.033Z,16.33
2023-05-04T00:47:07.345Z,17.97
2023-05-04T00:49:34.542Z,16.87
2023-05-04T00:52:02.925Z,16.90
2023-05-04T00:54:29.892Z,16.47
2023-05-04T00:56:56.571Z,18.50
2023-05-04T00:59:23.133Z,18.97
2023-05-04T01:01:49.667Z,18.70
2023-05-04T01:04:16.774Z,17.60
2023-05-04T01:07:03.518Z,18.17
2023-05-04T01:09:43.090Z,15.87
2023-05-04T01:12:20.746Z,19.50
2023-05-04T01:14:48.491Z,19.80
2023-05-04T01:17:14.992Z,18.50
2023-05-04T01:19:41.580Z,19.70
2023-05-04T01:22:08.143Z,17.77
2023-05-04T01:24:34.925Z,19.60
2023-05-04T01:27:46.583Z,18.87
2023-05-04T01:30:23.813Z,18.83
2023-05-04T01:32:51.311Z,18.00
2023-05-04T01:35:18.514Z,20.30
2023-05-04T01:37:47.143Z,20.80
2023-05-04T01:40:13.743Z,19.73
2023-05-04T01:42:40.243Z,18.83
2023-05-04T01:45:07.974Z,19.30
2023-05-04T01:47:34.805Z,19.23
2023-05-04T01:50:01.498Z,18.83
2023-05-04T01:52:28.165Z,18.47
2023-05-04T01:54:54.674Z,17.23
2023-05-04T01:57:21.209Z,18.80
2023-05-04T01:59:47.737Z,20.33
2023-05-04T02:02:14.308Z,19.07
2023-05-04T02:04:41.429Z,17.83
2023-05-04T02:07:08.371Z,18.13
2023-05-04T02:09:35.505Z,17.70
2023-05-04T02:12:02.731Z,17.30
2023-05-04T02:14:29.212Z,17.13
2023-05-04T02:16:55.978Z,17.87
2023-05-04T02:19:22.476Z,17.97
2023-05-04T02:21:49.003Z,17.90
2023-05-04T02:24:15.492Z,17.83
2023-05-04T02:26:41.994Z,17.77
2023-05-04T02:29:08.569Z,19.53
2023-05-04T02:31:35.379Z,17.47
2023-05-04T02:34:02.280Z,17.13
2023-05-04T02:36:29.790Z,19.23
2023-05-04T02:38:56.388Z,18.60
2023-05-04T02:41:23.016Z,20.10
2023-05-04T02:43:51.642Z,17.67
2023-05-04T02:46:20.010Z,18.50
2023-05-04T02:48:46.783Z,17.07
2023-05-04T02:51:13.247Z,18.43
2023-05-04T02:53:39.777Z,18.57
2023-05-04T02:56:06.393Z,19.10
2023-05-04T02:58:32.908Z,18.90
2023-05-04T03:00:59.554Z,17.50
2023-05-04T03:03:26.451Z,18.80
2023-05-04T03:05:53.226Z,18.90
2023-05-04T03:08:19.782Z,18.00
2023-05-04T03:10:46.348Z,19.57
2023-05-04T03:13:13.023Z,16.03
2023-05-04T03:15:39.697Z,16.63
2023-05-04T03:18:06.750Z,19.63
2023-05-04T03:20:34.044Z,16.47
2023-05-04T03:23:01.398Z,18.00
2023-05-04T03:25:28.143Z,18.07
2023-05-04T03:27:55.442Z,17.47
2023-05-04T03:30:21.924Z,18.80
2023-05-04T03:32:48.982Z,17.13
2023-05-04T03:35:17.464Z,18.40
2023-05-04T03:37:50.248Z,18.10
2023-05-04T03:40:16.779Z,18.90
2023-05-04T03:42:43.332Z,17.40
2023-05-04T03:45:10.666Z,18.30
2023-05-04T03:47:37.312Z,17.07
2023-05-04T03:50:04.221Z,18.37
2023-05-04T03:52:30.974Z,17.00
2023-05-04T03:54:57.698Z,16.97
2023-05-04T03:57:24.346Z,16.63
2023-05-04T03:59:51.875Z,18.10
2023-05-04T04:02:18.520Z,17.13
2023-05-04T04:04:45.189Z,17.77
2023-05-04T04:07:11.822Z,18.67
2023-05-04T04:09:38.979Z,19.40
2023-05-04T04:12:05.735Z,20.03
2023-05-04T04:14:32.239Z,18.97
2023-05-04T04:16:58.718Z,18.70
2023-05-04T04:19:25.303Z,18.37
2023-05-04T04:21:51.811Z,20.10
2023-05-04T04:24:18.306Z,20.20
2023-05-04T04:26:44.814Z,19.50
2023-05-04T04:29:12.204Z,21.93
2023-05-04T04:31:40.353Z,19.43
2023-05-04T04:34:06.906Z,19.80
2023-05-04T04:36:33.819Z,20.00
2023-05-04T04:39:00.473Z,19.03
2023-05-04T04:41:27.110Z,20.10
2023-05-04T04:43:53.608Z,18.00
2023-05-04T04:46:20.118Z,18.77
2023-05-04T04:48:47.154Z,18.13
2023-05-04T04:51:13.765Z,19.53
2023-05-04T04:53:40.329Z,17.30
2023-05-04T04:56:10.040Z,18.27
2023-05-04T04:58:36.600Z,16.77
2023-05-04T05:01:04.882Z,18.50
2023-05-04T05:03:32.240Z,17.93
2023-05-04T05:06:01.668Z,18.37
2023-05-04T05:08:28.434Z,16.20
2023-05-04T05:10:54.924Z,16.43
2023-05-04T05:13:21.513Z,16.07
2023-05-04T05:15:48.205Z,17.50
2023-05-04T05:18:14.803Z,16.93
2023-05-04T05:20:41.303Z,14.47
2023-05-04T05:23:07.804Z,16.57
2023-05-04T05:25:34.320Z,15.47
2023-05-04T05:28:00.794Z,13.87
2023-05-04T05:30:28.536Z,13.83
2023-05-04T05:32:55.170Z,13.20
2023-05-04T05:35:21.968Z,13.93
2023-05-04T05:37:51.977Z,12.90
2023-05-04T05:40:19.136Z,13.13
2023-05-04T05:42:45.685Z,12.90
2023-05-04T05:45:12.236Z,12.50
2023-05-04T05:47:38.814Z,13.97
2023-05-04T05:50:06.503Z,12.50
2023-05-04T05:52:33.150Z,12.50
2023-05-04T05:55:02.226Z,13.17
2023-05-04T05:57:29.381Z,12.33
2023-05-04T05:59:56.649Z,13.00
2023-05-04T06:02:23.711Z,11.83
2023-05-04T06:04:50.459Z,14.00
2023-05-04T06:07:17.817Z,12.73
2023-05-04T06:09:44.355Z,12.60
2023-05-04T06:12:13.535Z,11.23
2023-05-04T06:14:40.196Z,11.70
2023-05-04T06:17:06.761Z,12.70
2023-05-04T06:19:37.971Z,11.70
2023-05-04T06:22:05.224Z,12.60
2023-05-04T06:24:32.884Z,12.40
2023-05-04T06:26:59.442Z,14.37
2023-05-04T06:29:26.001Z,13.63
2023-05-04T06:31:52.554Z,13.23
2023-05-04T06:34:19.223Z,12.30
2023-05-04T06:36:45.770Z,11.80
2023-05-04T06:39:12.284Z,12.60
2023-05-04T06:41:38.870Z,12.03
2023-05-04T06:44:05.605Z,12.60
2023-05-04T06:46:35.311Z,11.60
2023-05-04T06:49:01.816Z,11.00
2023-05-04T06:51:28.303Z,10.07
2023-05-04T06:53:54.806Z,10.43
2023-05-04T06:56:21.829Z,9.20
2023-05-04T06:58:48.809Z,11.13
2023-05-04T07:01:17.700Z,10.33
2023-05-04T07:03:45.261Z,10.20
2023-05-04T07:06:12.281Z,10.40
2023-05-04T07:08:39.542Z,10.47
2023-05-04T07:11:06.060Z,10.30
2023-05-04T07:13:32.520Z,9.40
2023-05-04T07:15:59.031Z,8.37
2023-05-04T07:18:25.505Z,10.30
2023-05-04T07:20:53.016Z,10.10
2023-05-04T07:23:22.744Z,8.93
2023-05-04T07:25:49.244Z,9.10
2023-05-04T07:28:16.670Z,8.23
2023-05-04T07:30:43.391Z,9.17
2023-05-04T07:33:10.109Z,7.97
2023-05-04T07:35:36.766Z,7.00
2023-05-04T07:38:03.436Z,6.20
2023-05-04T07:40:29.914Z,6.33
2023-05-04T07:42:56.820Z,6.63
2023-05-04T07:45:23.461Z,6.10
2023-05-04T07:47:51.890Z,6.70
2023-05-04T07:50:19.714Z,5.70
2023-05-04T07:52:47.781Z,6.67
2023-05-04T07:55:14.282Z,5.80
2023-05-04T07:57:41.293Z,6.47
2023-05-04T08:00:09.658Z,7.13
2023-05-04T08:02:42.161Z,6.33
2023-05-04T08:05:09.179Z,6.67
2023-05-04T08:07:36.337Z,5.47
2023-05-04T08:10:03.831Z,6.53
2023-05-04T08:12:30.851Z,5.40
2023-05-04T08:14:57.789Z,4.77
2023-05-04T08:17:24.553Z,5.60
2023-05-04T08:19:51.325Z,4.87
2023-05-04T08:22:18.206Z,4.83
2023-05-04T08:24:47.352Z,5.57
2023-05-04T08:27:16.840Z,4.90
2023-05-04T08:29:43.308Z,5.10
2023-05-04T08:32:10.041Z,6.00
2023-05-04T08:34:37.316Z,5.00
2023-05-04T08:37:04.399Z,5.10
2023-05-04T08:39:30.989Z,5.53
2023-05-04T08:41:57.543Z,6.20
2023-05-04T08:44:24.254Z,5.97
2023-05-04T08:46:54.200Z,6.53
2023-05-04T08:49:21.907Z,5.90
2023-05-04T08:51:53.198Z,5.10
2023-05-04T08:54:20.981Z,5.83
2023-05-04T08:56:48.341Z,6.23
2023-05-04T08:59:23.947Z,5.60
2023-05-04T09:01:54.951Z,5.70
2023-05-04T09:04:22.662Z,5.70
2023-05-04T09:06:49.477Z,4.67
2023-05-04T09:09:16.242Z,4.63
2023-05-04T09:11:43.687Z,5.07
2023-05-04T09:14:10.265Z,5.20
2023-05-04T09:16:37.941Z,4.50
2023-05-04T09:19:16.714Z,4.40
2023-05-04T09:21:44.041Z,5.97
2023-05-04T09:24:12.526Z,5.83
2023-05-04T09:26:39.313Z,5.47
2023-05-04T09:29:13.902Z,5.60
2023-05-04T09:31:48.769Z,5.50
2023-05-04T09:34:15.488Z,4.90
2023-05-04T09:36:44.809Z,4.70
2023-05-04T09:39:15.741Z,5.63
2023-05-04T09:41:42.476Z,5.60
2023-05-04T09:44:22.477Z,4.97
2023-05-04T09:46:55.839Z,4.77
2023-05-04T09:49:40.878Z,4.77
2023-05-04T09:52:07.408Z,4.67
2023-05-04T09:54:35.837Z,5.57
2023-05-04T09:57:23.529Z,5.07
2023-05-04T09:59:51.225Z,4.57
2023-05-04T10:02:23.022Z,6.03
2023-05-04T10:04:51.579Z,5.90
2023-05-04T10:07:19.120Z,5.23
2023-05-04T10:09:47.413Z,5.90
2023-05-04T10:12:14.481Z,5.83
2023-05-04T10:14:42.783Z,5.60
2023-05-04T10:17:25.950Z,4.63
2023-05-04T10:19:58.086Z,5.50
2023-05-04T10:22:54.918Z,5.33
2023-05-04T10:25:30.746Z,5.53
2023-05-04T10:28:37.513Z,5.07
2023-05-04T10:31:06.253Z,5.10
2023-05-04T10:33:43.125Z,5.93
2023-05-04T10:36:10.551Z,5.40
2023-05-04T10:38:40.017Z,4.50
2023-05-04T10:41:19.477Z,5.30
2023-05-04T10:43:52.941Z,5.30
2023-05-04T10:46:23.938Z,5.70
2023-05-04T10:48:51.037Z,5.47
2023-05-04T10:51:22.501Z,5.40
2023-05-04T10:53:49.264Z,5.40
2023-05-04T10:56:23.127Z,5.17
2023-05-04T10:58:50.004Z,4.70
2023-05-04T11:01:17.575Z,5.50
2023-05-04T11:03:44.460Z,4.33
2023-05-04T11:06:24.090Z,5.60
2023-05-04T11:09:01.692Z,5.20
2023-05-04T11:11:28.318Z,6.30
2023-05-04T11:13:56.660Z,5.20
2023-05-04T11:16:24.645Z,6.50
2023-05-04T11:18:51.420Z,6.60
2023-05-04T11:21:27.325Z,4.97
2023-05-04T11:23:58.289Z,6.13
2023-05-04T11:26:25.949Z,5.30
2023-05-04T11:28:52.560Z,5.30
2023-05-04T11:31:20.936Z,5.03
2023-05-04T11:33:53.160Z,4.50
2023-05-04T11:36:20.272Z,5.30
2023-05-04T11:38:47.562Z,5.67
2023-05-04T11:41:14.244Z,6.10
2023-05-04T11:43:43.894Z,6.80
2023-05-04T11:46:11.244Z,5.30
2023-05-04T11:48:38.591Z,5.60
2023-05-04T11:51:06.577Z,5.13
2023-05-04T11:53:40.751Z,5.93
2023-05-04T11:56:10.757Z,6.30
2023-05-04T11:58:37.714Z,6.23
2023-05-04T12:01:04.893Z,5.17
2023-05-04T12:03:48.529Z,6.90
2023-05-04T12:06:20.130Z,5.77
2023-05-04T12:08:46.809Z,8.40
2023-05-04T12:11:25.126Z,6.50
2023-05-04T12:14:11.868Z,6.73
2023-05-04T12:16:39.524Z,5.83
2023-05-04T12:19:08.810Z,6.03
2023-05-04T12:21:36.116Z,5.97
2023-05-04T12:24:04.049Z,6.57
2023-05-04T12:26:30.639Z,6.20
2023-05-04T12:28:57.338Z,5.80
2023-05-04T12:31:25.383Z,6.83
2023-05-04T12:33:52.528Z,6.50
2023-05-04T12:36:19.215Z,6.73
2023-05-04T12:38:46.133Z,5.40
2023-05-04T12:41:12.750Z,5.70
2023-05-04T12:43:39.548Z,5.60
2023-05-04T12:46:06.800Z,5.53
2023-05-04T12:48:33.566Z,7.40
2023-05-04T12:51:01.736Z,7.50
2023-05-04T12:53:30.044Z,6.67
2023-05-04T12:55:57.211Z,6.20
2023-05-04T12:58:23.784Z,7.03
2023-05-04T13:00:50.718Z,7.03
2023-05-04T13:03:18.499Z,6.50
2023-05-04T13:05:49.892Z,6.53
2023-05-04T13:08:18.225Z,7.10
2023-05-04T13:10:46.210Z,6.73
2023-05-04T13:13:15.142Z,7.13
2023-05-04T13:15:42.310Z,6.77
2023-05-04T13:18:08.784Z,8.90
2023-05-04T13:20:35.381Z,7.60
2023-05-04T13:23:01.878Z,5.80
2023-05-04T13:25:28.418Z,6.60
2023-05-04T13:27:55.218Z,6.63
2023-05-04T13:30:21.966Z,6.97
2023-05-04T13:32:49.135Z,6.90
2023-05-04T13:35:16.154Z,6.57
2023-05-04T13:37:42.638Z,6.30
2023-05-04T13:40:09.940Z,6.57
2023-05-04T13:42:37.397Z,6.43
2023-05-04T13:45:04.929Z,5.57
2023-05-04T13:47:33.714Z,5.33
2023-05-04T13:50:00.391Z,5.90
2023-05-04T13:52:27.130Z,7.03
2023-05-04T13:54:53.686Z,5.87
2023-05-04T13:57:20.157Z,5.90
2023-05-04T14:00:02.458Z,4.90
2023-05-04T14:02:37.251Z,6.20
2023-05-04T14:05:04.157Z,5.13
2023-05-04T14:07:30.955Z,5.97
2023-05-04T14:09:58.787Z,5.40
2023-05-04T14:12:25.300Z,5.10
2023-05-04T14:14:51.842Z,5.07
2023-05-04T14:17:18.559Z,5.50
2023-05-04T14:19:45.239Z,5.00
2023-05-04T14:22:11.716Z,7.13
2023-05-04T14:24:38.326Z,6.13
2023-05-04T14:27:04.961Z,5.10
2023-05-04T14:29:33.211Z,5.57
2023-05-04T14:32:00.713Z,5.40
2023-05-04T14:34:28.336Z,5.93
2023-05-04T14:36:54.856Z,4.30
2023-05-04T14:39:21.340Z,5.47
2023-05-04T14:41:48.020Z,4.03
2023-05-04T14:44:14.591Z,5.03
2023-05-04T14:46:41.309Z,5.20
2023-05-04T14:49:07.762Z,4.10
2023-05-04T14:51:35.475Z,5.00
2023-05-04T14:54:04.393Z,4.63
2023-05-04T14:56:30.870Z,5.10
2023-05-04T14:58:57.346Z,4.67
2023-05-04T15:01:27.219Z,4.83
2023-05-04T15:03:53.850Z,4.77
2023-05-04T15:06:20.518Z,4.70
2023-05-04T15:08:47.053Z,5.30
2023-05-04T15:11:13.904Z,5.47
2023-05-04T15:13:40.418Z,5.50
2023-05-04T15:16:07.537Z,4.93
2023-05-04T15:18:34.046Z,4.90
2023-05-04T15:21:00.596Z,4.27
2023-05-04T15:23:27.383Z,4.70
2023-05-04T15:25:53.878Z,4.47
2023-05-04T15:28:22.793Z,5.07
2023-05-04T15:30:49.390Z,5.47
2023-05-04T15:33:15.968Z,4.50
2023-05-04T15:35:42.697Z,4.50
2023-05-04T15:38:09.315Z,4.30
2023-05-04T15:40:36.328Z,4.60
2023-05-04T15:43:03.692Z,4.00
2023-05-04T15:45:30.341Z,4.63
2023-05-04T15:47:59.361Z,3.70
2023-05-04T15:50:26.294Z,4.17
2023-05-04T15:52:53.044Z,4.17
2023-05-04T15:55:26.010Z,4.70
2023-05-04T15:57:54.054Z,4.13
2023-05-04T16:00:21.239Z,3.87
2023-05-04T16:02:48.034Z,3.87
2023-05-04T16:05:14.775Z,4.20
2023-05-04T16:07:41.296Z,4.47
2023-05-04T16:10:08.849Z,3.60
2023-05-04T16:12:35.761Z,4.40
2023-05-04T16:15:02.300Z,4.63
2023-05-04T16:17:30.506Z,3.80
2023-05-04T16:19:57.070Z,4.60
2023-05-04T16:22:23.550Z,4.53
2023-05-04T16:24:50.024Z,4.80
2023-05-04T16:27:16.537Z,4.80
2023-05-04T16:29:43.096Z,4.67
2023-05-04T16:32:09.631Z,5.17
2023-05-04T16:34:36.086Z,4.30
2023-05-04T16:37:02.712Z,4.00
2023-05-04T16:39:31.243Z,4.50
2023-05-04T16:41:58.451Z,4.50
2023-05-04T16:44:25.406Z,4.50
2023-05-04T16:46:53.974Z,4.33
2023-05-04T16:49:21.907Z,4.37
2023-05-04T16:51:48.551Z,4.73
2023-05-04T16:54:16.390Z,4.90
2023-05-04T16:56:42.918Z,3.90
2023-05-04T16:59:09.498Z,4.37
2023-05-04T17:01:36.064Z,4.60
2023-05-04T17:04:02.928Z,4.73
2023-05-04T17:06:29.533Z,4.50
2023-05-04T17:08:56.302Z,4.07
2023-05-04T17:11:24.084Z,3.60
2023-05-04T17:13:51.150Z,3.97
2023-05-04T17:16:17.848Z,4.07
2023-05-04T17:18:45.837Z,3.67
2023-05-04T17:21:12.643Z,3.23
2023-05-04T17:23:39.154Z,4.10
2023-05-04T17:26:06.413Z,3.67
2023-05-04T17:28:32.912Z,3.90
2023-05-04T17:30:59.432Z,4.60
2023-05-04T17:33:25.945Z,3.80
2023-05-04T17:35:52.588Z,3.57
2023-05-04T17:38:19.161Z,3.67
2023-05-04T17:40:45.846Z,3.33
2023-05-04T17:43:12.399Z,2.80
2023-05-04T17:45:38.945Z,3.70
2023-05-04T17:48:06.269Z,3.17
2023-05-04T17:50:32.837Z,4.47
2023-05-04T17:52:59.335Z,2.70
2023-05-04T17:55:26.048Z,3.13
2023-05-04T17:57:53.964Z,3.30
2023-05-04T18:00:21.002Z,2.90
2023-05-04T18:02:47.668Z,3.03
2023-05-04T18:05:14.253Z,3.13
2023-05-04T18:07:40.787Z,2.67
2023-05-04T18:10:08.074Z,3.63
2023-05-04T18:12:35.647Z,3.10
2023-05-04T18:15:08.087Z,3.37
2023-05-04T18:17:35.895Z,3.50
2023-05-04T18:20:02.532Z,3.70
2023-05-04T18:22:29.011Z,4.13
2023-05-04T18:24:55.565Z,4.07
2023-05-04T18:27:22.246Z,3.37
2023-05-04T18:29:48.828Z,3.40
2023-05-04T18:32:15.339Z,3.80
2023-05-04T18:34:42.097Z,4.10
2023-05-04T18:37:08.833Z,3.10
2023-05-04T18:39:35.298Z,3.73
2023-05-04T18:42:01.867Z,3.20
2023-05-04T18:44:28.397Z,3.77
2023-05-04T18:46:55.058Z,3.40
2023-05-04T18:49:21.587Z,2.90
2023-05-04T18:51:48.219Z,3.30
2023-05-04T18:54:16.100Z,2.80
2023-05-04T18:56:43.398Z,3.67
2023-05-04T18:59:10.800Z,3.70
2023-05-04T19:01:38.563Z,3.20
2023-05-04T19:04:05.584Z,3.77
2023-05-04T19:06:32.962Z,4.20
2023-05-04T19:08:59.757Z,3.47
2023-05-04T19:11:26.590Z,3.70
2023-05-04T19:13:53.307Z,3.43
2023-05-04T19:16:20.013Z,3.63
2023-05-04T19:18:47.299Z,3.50
2023-05-04T19:21:13.854Z,3.23
2023-05-04T19:23:40.348Z,3.00
2023-05-04T19:26:06.957Z,3.10
2023-05-04T19:28:33.529Z,3.23
2023-05-04T19:31:00.463Z,3.43
2023-05-04T19:33:40.337Z,3.13
2023-05-04T19:36:13.934Z,4.00
2023-05-04T19:38:40.748Z,3.50
2023-05-04T19:41:07.332Z,3.10
2023-05-04T19:43:33.852Z,2.73
2023-05-04T19:46:02.249Z,4.57
2023-05-04T19:48:28.802Z,4.10
2023-05-04T19:50:55.995Z,4.40
2023-05-04T19:53:22.582Z,3.53
2023-05-04T19:55:49.090Z,3.40
2023-05-04T19:58:15.913Z,3.13
2023-05-04T20:00:42.463Z,2.70
2023-05-04T20:03:09.053Z,3.77
2023-05-04T20:05:35.702Z,3.33
2023-05-04T20:08:04.831Z,3.63
2023-05-04T20:10:31.873Z,3.17
2023-05-04T20:12:58.435Z,3.73
2023-05-04T20:15:25.204Z,3.50
2023-05-04T20:17:51.975Z,2.90
2023-05-04T20:20:20.460Z,3.50
2023-05-04T20:22:49.146Z,3.97
2023-05-04T20:25:15.777Z,2.87
2023-05-04T20:27:42.408Z,3.10
2023-05-04T20:30:09.895Z,3.40
2023-05-04T20:32:36.571Z,3.20
2023-05-04T20:35:03.790Z,3.40
2023-05-04T20:37:30.425Z,4.03
2023-05-04T20:39:57.196Z,3.27
2023-05-04T20:42:24.587Z,3.33
2023-05-04T20:44:51.301Z,3.77
2023-05-04T20:47:18.474Z,3.30
2023-05-04T20:49:45.061Z,3.40
2023-05-04T20:52:11.582Z,3.87
2023-05-04T20:54:38.084Z,3.30
2023-05-04T20:57:04.749Z,3.07
2023-05-04T20:59:31.352Z,2.90
2023-05-04T21:01:57.867Z,3.00
2023-05-04T21:04:24.432Z,2.80
2023-05-04T21:06:51.078Z,2.80
2023-05-04T21:09:17.623Z,3.30
2023-05-04T21:11:44.172Z,3.30
2023-05-04T21:14:10.903Z,3.20
2023-05-04T21:16:38.468Z,2.87
2023-05-04T21:19:04.957Z,3.07
2023-05-04T21:21:32.210Z,3.00
2023-05-04T21:23:58.711Z,3.17
2023-05-04T21:26:25.280Z,3.03
2023-05-04T21:28:52.240Z,2.63
2023-05-04T21:31:18.949Z,3.60
2023-05-04T21:33:45.521Z,3.20
2023-05-04T21:36:16.164Z,3.03
2023-05-04T21:38:43.253Z,3.43
2023-05-04T21:41:14.619Z,3.43
2023-05-04T21:43:41.776Z,2.97
2023-05-04T21:46:09.136Z,2.80
2023-05-04T21:48:36.025Z,3.00
2023-05-04T21:51:02.519Z,3.63
2023-05-04T21:53:33.277Z,3.40
2023-05-04T21:56:01.116Z,4.33
2023-05-04T21:58:27.734Z,5.57
2023-05-04T22:00:54.817Z,5.60
2023-05-04T22:03:21.715Z,4.60
2023-05-04T22:05:57.516Z,4.80
2023-05-04T22:08:25.156Z,4.97
2023-05-04T22:10:52.592Z,5.87
2023-05-04T22:13:19.785Z,8.40
2023-05-04T22:15:49.734Z,8.07
2023-05-04T22:18:17.163Z,6.63
2023-05-04T22:20:43.704Z,7.03
2023-05-04T22:23:10.603Z,6.50
2023-05-04T22:25:37.631Z,7.90
2023-05-04T22:28:04.348Z,6.53
2023-05-04T22:30:31.026Z,6.10
2023-05-04T22:32:57.938Z,5.77
2023-05-04T22:35:24.586Z,6.10
2023-05-04T22:37:51.147Z,4.33
2023-05-04T22:40:17.758Z,4.47
2023-05-04T22:42:47.525Z,5.40
2023-05-04T22:45:14.807Z,4.43
2023-05-04T22:47:42.165Z,4.60
2023-05-04T22:50:09.956Z,5.37
2023-05-04T22:52:37.575Z,4.00
2023-05-04T22:55:05.737Z,5.10
2023-05-04T22:57:32.305Z,5.40
2023-05-04T22:59:58.801Z,5.43
2023-05-04T23:02:25.647Z,5.70
2023-05-04T23:04:53.183Z,4.53
2023-05-04T23:07:20.244Z,4.80
2023-05-04T23:09:47.116Z,4.50
2023-05-04T23:12:14.015Z,4.73
2023-05-04T23:14:40.946Z,5.30
2023-05-04T23:17:07.737Z,4.03
2023-05-04T23:19:34.252Z,4.07
2023-05-04T23:22:00.942Z,4.57
2023-05-04T23:24:27.456Z,3.67
2023-05-04T23:26:54.139Z,4.30
2023-05-04T23:29:20.828Z,4.37
2023-05-04T23:31:47.371Z,4.63
2023-05-04T23:34:13.962Z,5.23
2023-05-04T23:36:40.460Z,4.90
2023-05-04T23:39:07.105Z,5.07
2023-05-04T23:41:34.151Z,4.57
2023-05-04T23:44:01.791Z,5.50
2023-05-04T23:46:28.363Z,5.67
2023-05-04T23:48:55.040Z,5.13
2023-05-04T23:51:21.572Z,4.80
2023-05-04T23:53:48.205Z,5.13
2023-05-04T23:56:14.772Z,5.23
2023-05-04T23:58:41.979Z,5.30
